createdAt,value
2023-04-04T00:00:09.366Z,50.26
2023-04-04T00:03:11.191Z,50.62
2023-04-04T00:06:12.840Z,50.22
2023-04-04T00:09:14.484Z,50.19
2023-04-04T00:12:16.250Z,50.22
2023-04-04T00:15:17.910Z,50.23
2023-04-04T00:18:19.508Z,50.30
2023-04-04T00:21:21.449Z,50.25
2023-04-04T00:24:23.033Z,50.19
2023-04-04T00:27:24.556Z,50.34
2023-04-04T00:30:26.431Z,50.33
2023-04-04T00:33:28.001Z,50.27
2023-04-04T00:36:29.637Z,50.20
2023-04-04T00:39:31.551Z,50.15
2023-04-04T00:42:34.100Z,50.34
2023-04-04T00:45:36.114Z,50.28
2023-04-04T00:48:37.923Z,50.39
2023-04-04T00:51:39.464Z,50.46
2023-04-04T00:54:41.239Z,50.36
2023-04-04T00:57:43.498Z,50.62
2023-04-04T01:00:45.409Z,50.59
2023-04-04T01:03:47.136Z,50.39
2023-04-04T01:06:50.120Z,50.52
2023-04-04T01:09:52.198Z,50.36
2023-04-04T01:12:54.385Z,50.64
2023-04-04T01:15:56.160Z,50.55
2023-04-04T01:18:57.855Z,50.76
2023-04-04T01:21:59.758Z,50.53
2023-04-04T01:25:02.294Z,50.55
2023-04-04T01:28:03.927Z,50.70
2023-04-04T01:31:08.432Z,50.37
2023-04-04T01:34:23.634Z,50.43
2023-04-04T01:37:30.421Z,50.38
2023-04-04T01:40:37.517Z,50.50
2023-04-04T01:43:39.324Z,50.70
2023-04-04T01:46:40.861Z,50.82
2023-04-04T01:49:42.586Z,50.70
2023-04-04T01:52:44.597Z,50.82
2023-04-04T01:55:46.107Z,50.45
2023-04-04T01:58:47.712Z,50.71
2023-04-04T02:01:49.320Z,50.58
2023-04-04T02:04:50.837Z,50.84
2023-04-04T02:07:52.544Z,50.57
2023-04-04T02:10:54.130Z,50.74
2023-04-04T02:13:55.666Z,50.88
2023-04-04T02:16:57.224Z,50.91
2023-04-04T02:19:58.821Z,50.84
2023-04-04T02:23:00.370Z,50.54
2023-04-04T02:26:01.871Z,50.53
2023-04-04T02:29:03.430Z,50.52
2023-04-04T02:32:05.059Z,50.49
2023-04-04T02:35:07.088Z,50.66
2023-04-04T02:38:08.634Z,50.82
2023-04-04T02:41:10.598Z,50.83
2023-04-04T02:44:12.224Z,50.59
2023-04-04T02:47:13.857Z,50.58
2023-04-04T02:50:15.616Z,50.95
2023-04-04T02:53:17.573Z,50.63
2023-04-04T02:56:19.119Z,50.76
2023-04-04T02:59:21.235Z,51.05
2023-04-04T03:02:24.529Z,50.53
2023-04-04T03:05:27.615Z,50.59
2023-04-04T03:08:29.237Z,50.80
2023-04-04T03:11:31.430Z,51.10
2023-04-04T03:14:33.222Z,51.11
2023-04-04T03:17:34.817Z,51.20
2023-04-04T03:20:36.422Z,51.50
2023-04-04T03:23:38.610Z,51.19
2023-04-04T03:26:40.153Z,51.31
2023-04-04T03:29:41.767Z,51.20
2023-04-04T03:32:43.697Z,51.03
2023-04-04T03:35:45.425Z,51.13
2023-04-04T03:38:47.024Z,51.19
2023-04-04T03:41:48.794Z,51.22
2023-04-04T03:44:50.402Z,50.85
2023-04-04T03:47:52.118Z,51.36
2023-04-04T03:50:53.702Z,51.21
2023-04-04T03:53:56.420Z,51.38
2023-04-04T03:56:58.271Z,51.25
2023-04-04T03:59:59.846Z,51.17
2023-04-04T04:03:01.527Z,51.04
2023-04-04T04:06:03.496Z,51.50
2023-04-04T04:09:05.074Z,51.41
2023-04-04T04:12:06.928Z,51.44
2023-04-04T04:15:08.777Z,50.93
2023-04-04T04:18:10.542Z,51.53
2023-04-04T04:21:12.135Z,51.35
2023-04-04T04:24:13.702Z,51.13
2023-04-04T04:27:15.256Z,51.32
2023-04-04T04:30:16.820Z,51.18
2023-04-04T04:33:19.353Z,51.45
2023-04-04T04:36:20.992Z,51.11
2023-04-04T04:39:22.647Z,51.27
2023-04-04T04:42:24.226Z,51.31
2023-04-04T04:45:26.273Z,51.59
2023-04-04T04:48:27.815Z,51.28
2023-04-04T04:51:29.365Z,51.53
2023-04-04T04:54:30.988Z,51.00
2023-04-04T04:57:34.393Z,50.99
2023-04-04T05:00:36.570Z,51.39
2023-04-04T05:03:38.408Z,51.18
2023-04-04T05:06:39.951Z,51.66
2023-04-04T05:09:41.483Z,51.09
2023-04-04T05:12:44.861Z,51.26
2023-04-04T05:15:47.185Z,51.75
2023-04-04T05:18:48.797Z,51.32
2023-04-04T05:21:50.364Z,51.59
2023-04-04T05:24:52.532Z,51.43
2023-04-04T05:27:55.780Z,51.26
2023-04-04T05:30:58.601Z,51.35
2023-04-04T05:34:07.999Z,51.48
2023-04-04T05:37:09.582Z,51.58
2023-04-04T05:40:11.457Z,51.32
2023-04-04T05:43:13.332Z,51.32
2023-04-04T05:46:14.856Z,51.49
2023-04-04T05:49:16.700Z,51.64
2023-04-04T05:52:18.311Z,51.15
2023-04-04T05:55:19.800Z,51.23
2023-04-04T05:58:21.383Z,51.44
2023-04-04T06:01:22.894Z,51.32
2023-04-04T06:04:24.473Z,51.38
2023-04-04T06:07:26.248Z,51.78
2023-04-04T06:10:27.810Z,51.44
2023-04-04T06:13:29.362Z,51.42
2023-04-04T06:16:31.614Z,51.46
2023-04-04T06:19:33.296Z,51.60
2023-04-04T06:22:35.299Z,51.35
2023-04-04T06:25:37.781Z,51.28
2023-04-04T06:28:48.530Z,51.21
2023-04-04T06:31:50.826Z,51.33
2023-04-04T06:34:53.965Z,51.44
2023-04-04T06:37:56.852Z,51.36
2023-04-04T06:40:59.189Z,51.44
2023-04-04T06:44:01.014Z,51.36
2023-04-04T06:47:02.719Z,51.10
2023-04-04T06:50:05.666Z,51.39
2023-04-04T06:53:07.705Z,51.28
2023-04-04T06:56:09.797Z,51.23
2023-04-04T06:59:12.676Z,51.15
2023-04-04T07:02:14.332Z,51.12
2023-04-04T07:05:18.214Z,51.16
2023-04-04T07:08:20.479Z,51.33
2023-04-04T07:11:24.101Z,51.02
2023-04-04T07:14:26.006Z,51.02
2023-04-04T07:17:27.686Z,50.93
2023-04-04T07:20:29.243Z,50.84
2023-04-04T07:23:31.181Z,51.02
2023-04-04T07:26:34.038Z,50.99
2023-04-04T07:29:35.820Z,50.83
2023-04-04T07:32:38.334Z,51.19
2023-04-04T07:35:40.047Z,50.87
2023-04-04T07:38:41.652Z,51.47
2023-04-04T07:41:43.188Z,51.48
2023-04-04T07:44:44.746Z,51.12
2023-04-04T07:47:47.098Z,50.97
2023-04-04T07:50:48.958Z,50.89
2023-04-04T07:53:51.695Z,50.97
2023-04-04T07:56:54.322Z,50.97
2023-04-04T07:59:56.112Z,51.22
2023-04-04T08:03:02.070Z,51.15
2023-04-04T08:06:04.375Z,51.09
2023-04-04T08:09:06.162Z,50.89
2023-04-04T08:12:08.180Z,50.95
2023-04-04T08:15:11.785Z,51.36
2023-04-04T08:18:13.969Z,51.15
2023-04-04T08:21:16.178Z,50.86
2023-04-04T08:24:18.172Z,51.05
2023-04-04T08:27:20.092Z,50.99
2023-04-04T08:30:22.343Z,50.64
2023-04-04T08:33:37.292Z,50.65
2023-04-04T08:36:46.057Z,50.54
2023-04-04T08:39:48.006Z,50.50
2023-04-04T08:42:51.835Z,50.57
2023-04-04T08:45:55.115Z,50.49
2023-04-04T08:48:59.952Z,50.68
2023-04-04T08:52:04.239Z,50.31
2023-04-04T08:55:06.985Z,50.52
2023-04-04T08:58:09.309Z,50.25
2023-04-04T09:01:10.913Z,50.22
2023-04-04T09:04:12.557Z,50.00
2023-04-04T09:07:15.996Z,50.14
2023-04-04T09:10:17.792Z,49.89
2023-04-04T09:13:19.979Z,49.82
2023-04-04T09:16:21.574Z,49.79
2023-04-04T09:19:26.099Z,49.50
2023-04-04T09:22:28.321Z,49.45
2023-04-04T09:25:29.983Z,49.42
2023-04-04T09:28:32.945Z,49.46
2023-04-04T09:31:34.666Z,49.31
2023-04-04T09:34:38.027Z,49.23
2023-04-04T09:37:41.857Z,49.31
2023-04-04T09:40:46.052Z,49.05
2023-04-04T09:43:48.890Z,48.98
2023-04-04T09:46:54.397Z,49.04
2023-04-04T09:50:04.344Z,48.82
2023-04-04T09:53:05.917Z,48.62
2023-04-04T09:56:09.176Z,48.52
2023-04-04T09:59:13.806Z,48.49
2023-04-04T10:02:16.903Z,48.36
2023-04-04T10:05:21.080Z,48.18
2023-04-04T10:08:23.284Z,48.16
2023-04-04T10:11:33.592Z,48.32
2023-04-04T10:14:36.535Z,48.06
2023-04-04T10:17:40.220Z,47.90
2023-04-04T10:20:43.611Z,47.76
2023-04-04T10:23:49.399Z,47.89
2023-04-04T10:26:51.666Z,47.65
2023-04-04T10:29:53.683Z,47.53
2023-04-04T10:33:06.855Z,47.87
2023-04-04T10:36:11.735Z,47.97
2023-04-04T10:39:37.838Z,47.78
2023-04-04T10:42:43.289Z,47.46
2023-04-04T10:45:47.100Z,47.35
2023-04-04T10:48:49.815Z,47.57
2023-04-04T10:51:56.534Z,47.76
2023-04-04T10:55:02.471Z,47.52
2023-04-04T10:58:04.523Z,47.44
2023-04-04T11:01:08.069Z,47.54
2023-04-04T11:04:20.256Z,47.50
2023-04-04T11:07:28.348Z,47.30
2023-04-04T11:10:57.949Z,47.23
2023-04-04T11:14:00.946Z,47.11
2023-04-04T11:17:05.708Z,46.96
2023-04-04T11:20:14.707Z,46.83
2023-04-04T11:23:22.524Z,46.85
2023-04-04T11:26:33.315Z,46.80
2023-04-04T11:29:52.643Z,46.75
2023-04-04T11:33:07.028Z,46.87
2023-04-04T11:36:23.961Z,46.77
2023-04-04T11:39:31.102Z,46.67
2023-04-04T11:42:41.164Z,46.76
2023-04-04T11:45:46.667Z,46.69
2023-04-04T11:48:48.444Z,46.51
2023-04-04T11:51:50.282Z,46.59
2023-04-04T11:54:52.668Z,46.53
2023-04-04T11:57:55.740Z,46.71
2023-04-04T12:00:57.613Z,46.62
2023-04-04T12:04:01.595Z,46.45
2023-04-04T12:07:07.782Z,46.41
2023-04-04T12:10:11.582Z,46.43
2023-04-04T12:13:13.965Z,46.25
2023-04-04T12:16:20.537Z,46.48
2023-04-04T12:19:28.154Z,46.37
2023-04-04T12:22:36.006Z,46.26
2023-04-04T12:25:40.845Z,46.18
2023-04-04T12:28:45.352Z,46.13
2023-04-04T12:31:47.733Z,46.03
2023-04-04T12:34:50.916Z,46.29
2023-04-04T12:38:03.445Z,45.94
2023-04-04T12:41:16.777Z,45.89
2023-04-04T12:44:36.556Z,46.03
2023-04-04T12:47:39.613Z,45.91
2023-04-04T12:50:57.064Z,45.93
2023-04-04T12:54:00.055Z,45.81
2023-04-04T12:57:04.627Z,45.84
2023-04-04T13:00:09.468Z,45.95
2023-04-04T13:03:14.450Z,45.95
2023-04-04T13:06:17.759Z,45.60
2023-04-04T13:09:24.561Z,45.58
2023-04-04T13:12:27.292Z,45.66
2023-04-04T13:15:52.095Z,45.64
2023-04-04T13:18:54.504Z,45.53
2023-04-04T13:21:56.466Z,45.82
2023-04-04T13:24:58.116Z,45.59
2023-04-04T13:27:59.751Z,45.61
2023-04-04T13:31:05.704Z,45.52
2023-04-04T13:34:07.439Z,45.54
2023-04-04T13:37:08.952Z,45.33
2023-04-04T13:40:11.442Z,45.40
2023-04-04T13:43:15.024Z,45.37
2023-04-04T13:46:16.648Z,45.17
2023-04-04T13:49:18.334Z,45.29
2023-04-04T13:52:19.910Z,45.23
2023-04-04T13:55:22.238Z,45.17
2023-04-04T13:58:23.808Z,45.24
2023-04-04T14:01:25.689Z,45.15
2023-04-04T14:04:27.323Z,45.11
2023-04-04T14:07:28.911Z,45.09
2023-04-04T14:10:30.818Z,45.18
2023-04-04T14:13:33.249Z,45.14
2023-04-04T14:16:34.859Z,45.00
2023-04-04T14:19:38.515Z,45.12
2023-04-04T14:22:40.115Z,44.99
2023-04-04T14:25:42.953Z,44.81
2023-04-04T14:28:44.790Z,44.80
2023-04-04T14:31:46.572Z,44.77
2023-04-04T14:34:48.120Z,44.83
2023-04-04T14:37:50.054Z,44.74
2023-04-04T14:40:52.443Z,44.85
2023-04-04T14:43:54.011Z,44.78
2023-04-04T14:46:55.751Z,44.72
2023-04-04T14:49:58.232Z,44.65
2023-04-04T14:52:59.737Z,44.62
2023-04-04T14:56:01.292Z,44.60
2023-04-04T14:59:05.473Z,44.63
2023-04-04T15:02:07.451Z,44.76
2023-04-04T15:05:09.642Z,44.57
2023-04-04T15:08:11.291Z,44.36
2023-04-04T15:11:13.867Z,44.55
2023-04-04T15:14:15.416Z,44.66
2023-04-04T15:17:17.333Z,44.64
2023-04-04T15:20:18.875Z,44.40
2023-04-04T15:23:20.455Z,44.41
2023-04-04T15:26:22.905Z,44.32
2023-04-04T15:29:24.547Z,44.29
2023-04-04T15:32:26.329Z,44.32
2023-04-04T15:35:27.998Z,44.47
2023-04-04T15:38:29.645Z,44.45
2023-04-04T15:41:31.389Z,44.29
2023-04-04T15:44:33.015Z,44.40
2023-04-04T15:47:35.024Z,44.14
2023-04-04T15:50:36.591Z,44.13
2023-04-04T15:53:38.175Z,44.13
2023-04-04T15:56:39.783Z,43.96
2023-04-04T15:59:41.332Z,43.90
2023-04-04T16:02:43.302Z,43.84
2023-04-04T16:05:45.123Z,43.85
2023-04-04T16:08:46.713Z,43.94
2023-04-04T16:11:49.216Z,43.99
2023-04-04T16:14:50.756Z,44.02
2023-04-04T16:17:53.981Z,43.96
2023-04-04T16:20:56.117Z,44.13
2023-04-04T16:23:58.224Z,43.98
2023-04-04T16:26:59.807Z,44.14
2023-04-04T16:30:01.507Z,44.17
2023-04-04T16:33:03.308Z,44.25
2023-04-04T16:36:05.203Z,44.30
2023-04-04T16:39:07.361Z,44.29
2023-04-04T16:42:08.937Z,44.05
2023-04-04T16:45:11.162Z,44.19
2023-04-04T16:48:12.737Z,44.32
2023-04-04T16:51:14.304Z,44.31
2023-04-04T16:54:16.147Z,44.25
2023-04-04T16:57:17.720Z,44.40
2023-04-04T17:00:19.674Z,44.42
2023-04-04T17:03:21.526Z,44.50
2023-04-04T17:06:23.677Z,44.41
2023-04-04T17:09:25.236Z,44.35
2023-04-04T17:12:27.268Z,44.56
2023-04-04T17:15:29.796Z,44.59
2023-04-04T17:18:31.536Z,44.42
2023-04-04T17:21:33.951Z,44.50
2023-04-04T17:24:35.714Z,44.43
2023-04-04T17:27:37.762Z,44.47
2023-04-04T17:30:39.592Z,44.53
2023-04-04T17:33:41.757Z,44.53
2023-04-04T17:36:43.897Z,44.57
2023-04-04T17:39:46.426Z,44.54
2023-04-04T17:42:47.984Z,44.58
2023-04-04T17:45:50.158Z,44.63
2023-04-04T17:48:52.768Z,44.72
2023-04-04T17:51:55.292Z,44.54
2023-04-04T17:54:58.354Z,44.80
2023-04-04T17:58:00.911Z,44.62
2023-04-04T18:01:04.301Z,44.71
2023-04-04T18:04:08.095Z,44.73
2023-04-04T18:07:10.500Z,44.59
2023-04-04T18:10:12.253Z,44.61
2023-04-04T18:13:14.909Z,44.61
2023-04-04T18:16:18.210Z,44.66
2023-04-04T18:19:19.824Z,44.79
2023-04-04T18:22:22.698Z,44.90
2023-04-04T18:25:25.509Z,44.79
2023-04-04T18:28:27.121Z,44.63
2023-04-04T18:31:28.928Z,44.68
2023-04-04T18:34:30.599Z,44.66
2023-04-04T18:37:32.381Z,44.74
2023-04-04T18:40:34.068Z,44.78
2023-04-04T18:43:37.212Z,44.76
2023-04-04T18:46:39.355Z,44.69
2023-04-04T18:49:41.801Z,44.80
2023-04-04T18:52:43.412Z,44.81
2023-04-04T18:55:46.240Z,44.74
2023-04-04T18:58:48.552Z,44.72
2023-04-04T19:01:54.029Z,44.79
2023-04-04T19:04:56.431Z,44.70
2023-04-04T19:07:59.347Z,44.81
2023-04-04T19:11:00.896Z,44.85
2023-04-04T19:14:02.545Z,44.91
2023-04-04T19:17:04.092Z,44.70
2023-04-04T19:20:07.319Z,44.66
2023-04-04T19:23:09.226Z,44.66
2023-04-04T19:26:10.821Z,44.80
2023-04-04T19:29:19.551Z,44.71
2023-04-04T19:32:24.643Z,44.80
2023-04-04T19:35:54.462Z,44.74
2023-04-04T19:38:57.328Z,44.53
2023-04-04T19:42:00.202Z,44.57
2023-04-04T19:45:01.748Z,44.80
2023-04-04T19:48:27.966Z,44.84
2023-04-04T19:51:29.709Z,45.11
2023-04-04T19:54:41.007Z,44.85
2023-04-04T19:57:43.355Z,44.85
2023-04-04T20:00:45.481Z,45.39
2023-04-04T20:03:48.183Z,45.19
2023-04-04T20:06:49.717Z,44.96
2023-04-04T20:09:52.210Z,44.94
2023-04-04T20:12:54.102Z,44.90
2023-04-04T20:16:00.595Z,44.91
2023-04-04T20:19:08.297Z,44.99
2023-04-04T20:22:10.134Z,44.91
2023-04-04T20:25:42.127Z,45.07
2023-04-04T20:28:46.286Z,45.05
2023-04-04T20:31:54.062Z,44.75
2023-04-04T20:34:55.738Z,44.90
2023-04-04T20:37:57.293Z,45.04
2023-04-04T20:40:58.955Z,44.90
2023-04-04T20:44:00.621Z,44.95
2023-04-04T20:47:02.288Z,44.89
2023-04-04T20:50:16.145Z,45.04
2023-04-04T20:53:19.112Z,44.98
2023-04-04T20:56:39.518Z,45.19
2023-04-04T20:59:43.619Z,45.23
2023-04-04T21:02:45.403Z,45.21
2023-04-04T21:05:46.988Z,45.10
2023-04-04T21:08:50.224Z,45.40
2023-04-04T21:11:52.207Z,45.28
2023-04-04T21:14:54.429Z,45.31
2023-04-04T21:17:59.136Z,45.21
2023-04-04T21:21:10.729Z,45.18
2023-04-04T21:24:13.845Z,45.18
2023-04-04T21:27:33.868Z,45.53
2023-04-04T21:30:44.425Z,45.20
2023-04-04T21:33:47.769Z,45.48
2023-04-04T21:36:51.275Z,45.18
2023-04-04T21:39:57.071Z,45.26
2023-04-04T21:42:58.618Z,45.42
2023-04-04T21:46:00.399Z,45.39
2023-04-04T21:49:02.088Z,45.62
2023-04-04T21:52:03.647Z,45.39
2023-04-04T21:55:05.673Z,45.37
2023-04-04T21:58:07.207Z,45.59
2023-04-04T22:01:09.084Z,45.73
2023-04-04T22:04:11.518Z,45.77
2023-04-04T22:07:13.133Z,45.46
2023-04-04T22:10:14.839Z,45.69
2023-04-04T22:13:18.655Z,45.78
2023-04-04T22:16:20.456Z,45.67
2023-04-04T22:19:23.488Z,45.75
2023-04-04T22:22:30.032Z,45.86
2023-04-04T22:25:33.816Z,45.63
2023-04-04T22:28:37.643Z,45.60
2023-04-04T22:31:39.281Z,45.82
2023-04-04T22:34:41.201Z,45.79
2023-04-04T22:37:45.987Z,45.86
2023-04-04T22:40:47.580Z,45.88
2023-04-04T22:43:49.239Z,45.94
2023-04-04T22:46:51.965Z,45.94
2023-04-04T22:49:53.738Z,45.89
2023-04-04T22:52:55.463Z,45.97
2023-04-04T22:55:59.828Z,46.11
2023-04-04T22:59:01.440Z,46.07
2023-04-04T23:02:02.984Z,46.03
2023-04-04T23:05:04.861Z,46.29
2023-04-04T23:08:06.624Z,46.26
2023-04-04T23:11:08.211Z,46.07
2023-04-04T23:14:15.217Z,45.91
2023-04-04T23:17:17.178Z,46.33
2023-04-04T23:20:18.924Z,46.14
2023-04-04T23:23:20.561Z,46.36
2023-04-04T23:26:22.536Z,46.25
2023-04-04T23:29:24.170Z,46.27
2023-04-04T23:32:27.359Z,46.60
2023-04-04T23:35:29.171Z,46.55
2023-04-04T23:38:30.712Z,46.58
2023-04-04T23:41:32.362Z,46.64
2023-04-04T23:44:33.939Z,46.79
2023-04-04T23:47:35.847Z,46.56
2023-04-04T23:50:38.070Z,46.70
2023-04-04T23:53:39.723Z,46.66
2023-04-04T23:56:41.319Z,46.65
2023-04-04T23:59:42.854Z,46.76
